Aviation Digital Data Service (ADDS)

Output produced by METARs form (0823 UTC 18 February 2019)
found at http://www.aviationweather.gov/metar/data/
 
Forecast for: EDDF (FRANKFURT MAIN A, DE)
Text: TAF EDDF 180529Z 1806/1912 VRB03KT CAVOK
Forecast period: 0600 to 0800 UTC 18 February 2019
Forecast type: FROM: standard forecast or significant change
Winds: variable direction winds at 3 MPH (3 knots; 1.5 m/s)
Visibility: 6 or more miles 10+ km)
Ceiling: unknown
Clouds: missing
Weather: NSW  (no significant weather)
Text: BECMG 1808/1810 21005KT
Forecast period: 0800 to 1800 UTC 18 February 2019
Forecast type: BECOMING: Conditions expected to become as follows by 1000 UTC 18 February 2019
Winds: from the SSW (210 degrees) at 6 MPH (5 knots; 2.6 m/s)
Visibility: 6 or more miles 10+ km)
Ceiling: unknown
Clouds: missing
Weather: NSW  (no significant weather)
Text: BECMG 1818/1820 VRB03KT
Forecast period: 1800 UTC 18 February 2019 to 1200 UTC 19 February 2019
Forecast type: BECOMING: Conditions expected to become as follows by 2000 UTC 18 February 2019
Winds: variable direction winds at 3 MPH (3 knots; 1.5 m/s)
Visibility: 6 or more miles 10+ km)
Ceiling: unknown
Clouds: missing
Weather: NSW  (no significant weather)